Terminal Aerodrome Forecast
Issued by NWS

Home | Current Version | Previous Version | Text Only | Print | Product List | Glossary On
Versions: 1 2 3 4 5 6 7 8 9 10 11 12 13 14
000
FTUS45 KVEF 010500
TAFVGT
TAF
KVGT 010520Z 0106/0206 19003KT P6SM FEW090
     FM011000 30006KT P6SM SCT070 BKN100
     FM011500 33006KT P6SM BKN070
     FM020100 20004KT P6SM -RA SCT040 BKN050 OVC070=

USA.gov is the U.S. government's official web portal to all federal, state and local government web resources and services.